Home > Products > Valid Products > TAF

000
FTUS46 KMTR 010500
TAFSNS
TAF
KSNS 010530Z 0106/0206 27007KT P6SM -SHRA BKN030 OVC050
     FM011200 13005KT P6SM VCSH SCT030 BKN050
     FM011900 24007KT P6SM -SHRA BKN030
     FM020300 28005KT P6SM VCSH SCT030 BKN060=



000
FTUS46 KMTR 010500
TAFOAK
TAF
KOAK 010530Z 0106/0212 25007KT P6SM BKN080
     FM011200 19005KT P6SM VCSH BKN040
     FM012100 26010KT P6SM VCSH BKN040
     FM020300 30006KT P6SM SCT040 BKN080=



000
FTUS46 KMTR 010500
TAFMRY
TAF
KMRY 010530Z 0106/0206 26008KT P6SM -SHRA BKN030 OVC050
     FM011200 VRB04KT P6SM VCSH SCT030 BKN050
     FM011800 26005KT P6SM -SHRA BKN030=



000
FTUS46 KMTR 010500
TAFSJC
TAF
KSJC 010530Z 0106/0206 15005KT P6SM VCSH BKN030
     FM012000 29008KT P6SM VCSH BKN040
     FM020400 30003KT P6SM BKN040=



000
FTUS46 KMTR 010500
TAFSFO
TAF
KSFO 010530Z 0106/0212 27005KT P6SM FEW020 BKN080
     FM011100 19006KT P6SM VCSH BKN040
     FM012100 28010KT P6SM VCSH BKN040
     FM020300 28006KT P6SM SCT040 BKN080=



000
FTUS46 KMTR 010500
TAFSTS
TAF
KSTS 010530Z 0106/0206 VRB03KT P6SM BKN080
     FM012000 22007KT P6SM SCT040 BKN080
     FM020400 23004KT P6SM SKC=



000
FTUS46 KMTR 010200 AAA
TAFSFO
TAF AMD
KSFO 010249Z 0103/0206 27005KT P6SM SCT020 BKN080
     FM011000 19006KT P6SM VCSH BKN040
     FM012100 28010KT P6SM SCT040 BKN080
     FM020300 28010KT P6SM SCT040=



000
FTUS46 KMTR 312300 RRA
TAFSFO
TAF
KSFO 312343Z 0100/0206 27005KT P6SM SCT020 BKN080
     FM010300 27008KT P6SM BKN060
     FM010800 27006KT P6SM SCT040
     FM011400 19006KT P6SM VCSH BKN040
     FM012100 28010KT P6SM SCT040 BKN080
     FM020300 28010KT P6SM SCT040=



000
FTUS46 KMTR 312300 RRA
TAFOAK
TAF
KOAK 312343Z 0100/0206 25007KT P6SM SCT020 BKN080
     FM010300 25007KT P6SM BKN060
     FM010800 25007KT P6SM SCT040
     FM011400 19005KT P6SM VCSH BKN040
     FM012100 26010KT P6SM SCT040 BKN080
     FM020300 30006KT P6SM SCT040=



000
FTUS46 KMTR 312300 RRA
TAFSNS
TAF
KSNS 312343Z 0100/0124 29006KT 3SM RA BR OVC040
     FM010400 27007KT P6SM VCSH BKN040
     FM011200 13005KT P6SM BKN050
     FM011900 24007KT P6SM -SHRA BKN040=



000
FTUS46 KMTR 312300 RRA
TAFSJC
TAF
KSJC 312343Z 0100/0124 32008KT P6SM -RA BKN020 BKN060
     FM010200 32007KT P6SM VCSH BKN030
     FM010600 15005KT P6SM VCSH BKN030
     FM012000 29008KT P6SM BKN040=



000
FTUS46 KMTR 312300 RRA
TAFMRY
TAF
KMRY 312343Z 0100/0124 VRB04KT 3SM -RA BR OVC030
      TEMPO 0100/0102 2SM RA OVC010
     FM010400 26008KT P6SM VCSH BKN030 OVC050
     FM011200 VRB04KT P6SM BKN050
     FM011800 26005KT P6SM VCSH BKN040=



000
FTUS46 KMTR 312300 RRA
TAFSTS
TAF
KSTS 312343Z 0100/0124 VRB03KT P6SM SCT025 BKN080
     FM010900 00000KT 1/4SM FG OVC001
     FM011600 00000KT 3SM BR SCT005
     FM011700 24003KT P6SM SCT080
     FM012000 22007KT P6SM SCT040 BKN080=



000
FTUS46 KMTR 312200 AAC
TAFMRY
TAF AMD
KMRY 312238Z 3123/0118 VRB04KT 3SM RA BR OVC040
      TEMPO 3123/3124 1SM RA OVC010
     FM010300 26008KT P6SM VCSH BKN030 OVC050
     FM011200 VRB04KT P6SM BKN050=



000
FTUS46 KMTR 312200 AAC
TAFMRY
TAF AMD
KMRY 312238Z 3123/0118 VRB04KT 3SM RA BR OVC040
      TEMPO 3123/3124 1SM RA OVC010
     FM010300 26008KT P6SM VCSH BKN030 OVC050
     FM011200 VRB04KT P6SM BKN050=



000
FTUS46 KMTR 312100 AAF
TAFOAK
TAF AMD
KOAK 312145Z 3122/0124 25007KT P6SM SCT010 BKN020
     FM010300 25007KT P6SM SCT035 BKN050
     FM011000 25007KT P6SM SCT050=



000
FTUS46 KMTR 312100 AAD
TAFSJC
TAF AMD
KSJC 312143Z 3122/0118 32010KT P6SM -RA FEW002 SCT010 BKN050
     FM010200 32007KT P6SM VCSH BKN030
     FM011000 15005KT P6SM SCT050=



000
FTUS46 KMTR 312100 AAB
TAFSNS
TAF AMD
KSNS 312142Z 3122/0118 29006KT 3SM RA BR OVC040
     FM010500 27007KT P6SM VCSH BKN015 OVC050=



000
FTUS46 KMTR 312100 AAB
TAFMRY
TAF AMD
KMRY 312142Z 3122/0118 VRB04KT 3SM RA BR OVC040
     FM010400 26008KT P6SM VCSH BKN030 OVC050
     FM011200 VRB04KT P6SM BKN050=



000
FTUS46 KMTR 312100 AAD
TAFSFO
TAF AMD
KSFO 312140Z 3122/0124 29010KT P6SM SCT020 SCT060 BKN100
     FM010000 27005KT P6SM BKN050=



000
FTUS46 KMTR 312100 AAE
TAFOAK
TAF AMD
KOAK 312140Z 3122/0124 25015KT P6SM SCT010 BKN020
     FM010300 25007KT P6SM SCT035 BKN050
     FM011000 25007KT P6SM SCT050=



000
FTUS46 KMTR 312100 AAC
TAFSJC
TAF AMD
KSJC 312140Z 3122/0118 14010KT P6SM -RA FEW002 BKN005
     FM312230 31006KT P6SM -RA BKN040
     FM010200 14005KT P6SM VCSH BKN030
     FM011000 15005KT P6SM SCT050=



000
FTUS46 KMTR 312100 AAB
TAFSTS
TAF AMD
KSTS 312131Z 3122/0118 VRB03KT P6SM BKN025 OVC050
     FM010900 00000KT 1/4SM FG OVC001=



000
FTUS46 KMTR 312100 CCA
TAFSFO
TAF COR
KSFO 312110Z 3121/0124 28010KT P6SM VCSH SCT020 SCT060 BKN100
     FM010000 27005KT P6SM BKN050=



000
FTUS46 KMTR 312100 AAD
TAFOAK
TAF AMD
KOAK 312110Z 3121/0124 25015KT 3SM -SHRA BR SCT010 BKN020
     FM010000 25007KT P6SM SCT035 BKN050
     FM011000 25007KT P6SM SCT050=



000
FTUS46 KMTR 312100 AAC
TAFSFO
TAF AMD
KSFO 312106Z 3121/0124 28010KT P6SM VCSH SCT020 SCT060 BKN100
     FM011000 27005KT P6SM BKN050=



000
FTUS46 KMTR 312100 AAB
TAFSJC
TAF AMD
KSJC 312101Z 3121/0118 14010KT 2SM RA FEW002 BKN005
     FM312230 31006KT P6SM -RA BKN040
     FM010200 14005KT P6SM VCSH BKN030
     FM011000 15005KT P6SM SCT050=



000
FTUS46 KMTR 311900 AAC
TAFOAK
TAF AMD
KOAK 311914Z 3119/0124 25015KT 3SM -SHRA BR SCT010 BKN020
     FM010000 25007KT P6SM VCSH SCT035 BKN050
     FM011000 25007KT P6SM SCT050=



000
FTUS46 KMTR 311800 AAA
TAFSNS
TAF AMD
KSNS 311847Z 3119/0118 12006KT P6SM -RA OVC040
     FM010500 27007KT P6SM VCSH BKN015 OVC050=



000
FTUS46 KMTR 311800 AAA
TAFSJC
TAF AMD
KSJC 311846Z 3119/0118 14004KT P6SM -RA BKN030
     FM312100 31006KT P6SM -RA BKN040
     FM010200 14005KT P6SM VCSH BKN030
     FM011000 15005KT P6SM SCT050=



000
FTUS46 KMTR 311800 AAA
TAFMRY
TAF AMD
KMRY 311846Z 3119/0118 VRB04KT P6SM -RA OVC040
     FM010500 26008KT P6SM VCSH BKN030 OVC050
     FM011200 VRB04KT P6SM BKN050=



000
FTUS46 KMTR 311800 AAA
TAFSTS
TAF AMD
KSTS 311845Z 3119/0118 20004KT P6SM -SHRA BKN030
     FM312200 25005KT P6SM VCSH BKN025 OVC050
     FM010500 00000KT P6SM BKN040 OVC090
     FM010900 00000KT 1/4SM FG OVC001=



000
FTUS46 KMTR 311800 AAB
TAFOAK
TAF AMD
KOAK 311845Z 3119/0124 24015KT P6SM -SHRA SCT010 BKN020
     FM010000 25007KT P6SM VCSH SCT035 BKN050
     FM011000 25007KT P6SM SCT050=



000
FTUS46 KMTR 311800 AAB
TAFSFO
TAF AMD
KSFO 311844Z 3119/0124 26012KT P6SM -SHRA SCT020 OVC030
     FM010000 28012KT P6SM VCSH SCT035 BKN050
      TEMPO 0100/0104 28012G20KT
     FM011000 27005KT P6SM SCT050=



000
FTUS46 KMTR 311700 AAA
TAFSFO
TAF AMD
KSFO 311732Z 3118/0124 18010G16KT P6SM -SHRA SCT025 BKN040
     FM311900 22012KT P6SM -SHRA SCT035 BKN050
     FM010000 28012KT P6SM VCSH SCT035 BKN050
      TEMPO 0100/0104 28012G20KT
     FM011000 27005KT P6SM SCT050=



000
FTUS46 KMTR 311700 AAA
TAFOAK
TAF AMD
KOAK 311732Z 3118/0124 18012KT 3SM RA BKN035 OVC050
     FM311900 26011KT P6SM -SHRA SCT035 BKN050
     FM010000 25007KT P6SM VCSH SCT035 BKN050
     FM011000 25007KT P6SM SCT050=



000
FTUS46 KMTR 311700
TAFOAK
TAF
KOAK 311723Z 3118/0124 18012KT 3SM RA BKN035 OVC050
     FM311900 28011KT P6SM -SHRA SCT035 BKN050
     FM010000 25007KT P6SM VCSH SCT035 BKN050
     FM011000 25007KT P6SM SCT050=



000
FTUS46 KMTR 311700
TAFSTS
TAF
KSTS 311723Z 3118/0118 20004KT P6SM -SHRA BKN008 OVC025
     FM312200 25005KT P6SM VCSH BKN025 OVC050
     FM010500 00000KT P6SM BKN040 OVC090
     FM010900 00000KT 1/4SM FG OVC001=



000
FTUS46 KMTR 311700
TAFSNS
TAF
KSNS 311723Z 3118/0118 26004KT P6SM -RA OVC020
     FM010500 27007KT P6SM VCSH BKN015 OVC050=



000
FTUS46 KMTR 311700
TAFSJC
TAF
KSJC 311723Z 3118/0118 14009KT P6SM -RA BKN040
     FM312100 31006KT P6SM -RA BKN040
     FM010200 14005KT P6SM VCSH BKN030
     FM011000 15005KT P6SM SCT050=



000
FTUS46 KMTR 311700
TAFSFO
TAF
KSFO 311723Z 3118/0124 18010G16KT P6SM -SHRA SCT025 BKN040
     FM311900 28012KT P6SM -SHRA SCT035 BKN050
     FM010000 28012KT P6SM VCSH SCT035 BKN050
      TEMPO 0100/0104 28012G20KT
     FM011000 27005KT P6SM SCT050=



000
FTUS46 KMTR 311700
TAFMRY
TAF
KMRY 311723Z 3118/0118 22006KT P6SM -RA OVC020
     FM010500 26008KT P6SM VCSH BKN030 OVC050
     FM011200 VRB04KT P6SM BKN050=



000
FTUS46 KMTR 311600 AAB
TAFSNS
TAF AMD
KSNS 311628Z 3116/0112 VRB03KT P6SM OVC040
     FM311900 26004KT P6SM -RA OVC020
     FM010300 27007KT P6SM RA BKN015 OVC050=



000
FTUS46 KMTR 311600 AAE
TAFOAK
TAF AMD
KOAK 311628Z 3116/0118 18012KT P6SM VCSH OVC040
     FM311630 18012KT P6SM -RA BKN035 OVC050
      TEMPO 3117/3119 RA
     FM311930 21011KT P6SM -RA FEW020 SCT035 BKN050
     FM312100 28011KT P6SM -SHRA SCT035 BKN050
     FM010600 25007KT P6SM -SHRA SCT035 BKN050
     FM011500 20007KT P6SM VCSH SCT030 BKN050=



000
FTUS46 KMTR 311600 AAC
TAFSTS
TAF AMD
KSTS 311627Z 3116/0112 14004KT 2SM RA BR BKN015 OVC050
     FM311800 20004KT P6SM -SHRA BKN008 OVC025
     FM312100 25005KT P6SM -SHRA BKN025 OVC050
     FM010300 00000KT P6SM BKN040 OVC090 PROB30 0103/0106 P6SM -SHRA
      OVC050=



000
FTUS46 KMTR 311600 AAC
TAFSJC
TAF AMD
KSJC 311627Z 3116/0112 16008KT P6SM FEW010 BKN030
     FM311800 14009KT P6SM -RA BKN040
     FM312100 31006KT P6SM -RA BKN040
     FM010700 14005KT P6SM -SHRA BKN030=



000
FTUS46 KMTR 311500 AAE
TAFSFO
TAF AMD
KSFO 311518Z 3115/0118 17010G16KT P6SM VCSH SCT020 BKN100
     FM311630 21010G16KT P6SM -RA SCT025 BKN040
      TEMPO 3117/3119 RA
     FM311900 22010KT P6SM -RA BKN035 OVC050
     FM312100 28012KT P6SM -SHRA SCT035 BKN050
     FM010600 25008KT P6SM -SHRA SCT035 BKN050
     FM011500 20005KT P6SM VCSH SCT030 BKN050=



000
FTUS46 KMTR 311500 AAD
TAFOAK
TAF AMD
KOAK 311517Z 3115/0118 18010KT P6SM VCSH OVC040
     FM311730 17012KT P6SM -RA BKN025 OVC050
      TEMPO 3118/3119 RA
     FM311930 21011KT P6SM -RA FEW020 SCT035 BKN050
     FM312100 28011KT P6SM -SHRA SCT035 BKN050
     FM010600 25007KT P6SM -SHRA SCT035 BKN050
     FM011500 20007KT P6SM VCSH SCT030 BKN050=



000
FTUS46 KMTR 311500 AAA
TAFSNS
TAF AMD
KSNS 311514Z 3115/0112 VRB03KT P6SM OVC040
     FM312030 26004KT P6SM -RA OVC020
     FM010300 27007KT P6SM RA BKN015 OVC050=



000
FTUS46 KMTR 311500 AAB
TAFSTS
TAF AMD
KSTS 311513Z 3115/0112 14004KT P6SM -RA BKN020 OVC050
     FM311800 20004KT P6SM -SHRA BKN008 OVC025
     FM312100 25005KT P6SM -SHRA BKN025 OVC050
     FM010300 00000KT P6SM BKN040 OVC090 PROB30 0103/0106 P6SM -SHRA
      OVC050=



000
FTUS46 KMTR 311400 AAC
TAFOAK
TAF AMD
KOAK 311453Z 3115/0118 22010KT P6SM VCSH OVC040
     FM311730 17012KT P6SM -RA BKN025 OVC050
      TEMPO 3118/3119 RA
     FM311930 21011KT P6SM -RA FEW020 SCT035 BKN050
     FM312100 28011KT P6SM -SHRA SCT035 BKN050
     FM010600 25007KT P6SM -SHRA SCT035 BKN050
     FM011500 20007KT P6SM VCSH SCT030 BKN050=



000
FTUS46 KMTR 311400 AAD
TAFSFO
TAF AMD
KSFO 311451Z 3115/0118 20006KT P6SM VCSH SCT020 BKN100
     FM311630 21009KT P6SM -RA SCT025 BKN040
      TEMPO 3117/3119 RA
     FM311900 22010KT P6SM -RA BKN035 OVC050
     FM312100 28012KT P6SM -SHRA SCT035 BKN050
     FM010600 25008KT P6SM -SHRA SCT035 BKN050
     FM011500 20005KT P6SM VCSH SCT030 BKN050=



000
FTUS46 KMTR 311400 AAA
TAFSTS
TAF AMD
KSTS 311441Z 3115/0112 14004KT P6SM -RA SCT020 OVC050
     FM311800 20004KT P6SM -SHRA BKN008 OVC025
     FM312100 25005KT P6SM -SHRA BKN025 OVC050
     FM010300 00000KT P6SM BKN040 OVC090 PROB30 0103/0106 P6SM -SHRA
      OVC050=



000
FTUS46 KMTR 311400 AAB
TAFSJC
TAF AMD
KSJC 311416Z 3114/0112 16008KT P6SM FEW030 SCT060 BKN100
     FM311600 14009KT P6SM -RA BKN040
     FM312100 31006KT P6SM -RA BKN040
     FM010700 14005KT P6SM -SHRA BKN030=



000
FTUS46 KMTR 311400 AAC
TAFSFO
TAF AMD
KSFO 311415Z 3114/0118 20006KT P6SM BKN025 BKN045
     FM311530 21009KT P6SM -RA SCT025 BKN040
     FM311800 22010KT P6SM -RA BKN035 OVC050
     FM312100 28012KT P6SM RA SCT035 BKN050
     FM010600 25008KT P6SM -SHRA SCT035 BKN050
     FM011500 20005KT P6SM VCSH SCT030 BKN050=



000
FTUS46 KMTR 311400 AAB
TAFOAK
TAF AMD
KOAK 311415Z 3114/0118 22010KT P6SM OVC040
     FM311530 17012KT P6SM -RA BKN025 OVC050
     FM311800 21011KT P6SM -RA FEW020 SCT035 BKN050
     FM312100 28011KT P6SM RA SCT035 BKN050
     FM010600 25007KT P6SM -SHRA SCT035 BKN050
     FM011500 20007KT P6SM VCSH SCT030 BKN050=



000
FTUS46 KMTR 311300 AAB
TAFSFO
TAF AMD
KSFO 311349Z 3114/0118 20006KT P6SM VCSH BKN025 BKN045
     FM311400 21009KT P6SM -RA SCT025 BKN040
     FM311800 22010KT P6SM -RA BKN035 OVC050
     FM312100 28012KT P6SM RA SCT035 BKN050
     FM010600 25008KT P6SM -SHRA SCT035 BKN050
     FM011500 20005KT P6SM VCSH SCT030 BKN050=



000
FTUS46 KMTR 311300 CCB
TAFSJC
TAF COR
KSJC 311325Z 3113/0112 10010KT P6SM SCT030 BKN050
      TEMPO 3113/3116 P6SM -SHRA BKN025
     FM311600 14009KT P6SM -RA BKN040
     FM312100 31006KT P6SM -RA BKN040
     FM010700 14005KT P6SM -SHRA BKN030=



000
FTUS46 KMTR 311300 AAA
TAFSJC
TAF AMD
KSJC 311324Z 3113/0112 01010KT P6SM SCT030 BKN050
      TEMPO 3113/3116 P6SM -SHRA BKN025
     FM311600 14009KT P6SM -RA BKN040
     FM312100 31006KT P6SM -RA BKN040
     FM010700 14005KT P6SM -SHRA BKN030=



000
FTUS46 KMTR 311300 AAA
TAFSFO
TAF AMD
KSFO 311303Z 3113/0118 20006KT P6SM VCSH SCT025 BKN045
     FM311400 17009KT P6SM -RA SCT025 BKN040
     FM311800 21010KT P6SM -RA BKN035 OVC050
     FM312100 28012KT P6SM RA SCT035 BKN050
     FM010600 25008KT P6SM -SHRA SCT035 BKN050
     FM011500 20005KT P6SM VCSH SCT030 BKN050=



000
FTUS46 KMTR 311300 AAA
TAFOAK
TAF AMD
KOAK 311301Z 3113/0118 15015KT P6SM BKN025 OVC035
     FM311400 17012KT P6SM -RA BKN025 OVC050
     FM311800 21011KT P6SM -RA FEW020 SCT035 BKN050
     FM312100 28011KT P6SM RA SCT035 BKN050
     FM010600 25007KT P6SM -SHRA SCT035 BKN050
     FM011500 20007KT P6SM VCSH SCT030 BKN050=



000
FTUS46 KMTR 311100 CCA
TAFSJC
TAF COR
KSJC 311154Z 3112/0112 09004KT P6SM SCT030 BKN050
      TEMPO 3112/3116 P6SM -SHRA BKN025
     FM311600 14009KT P6SM -RA BKN040
     FM312100 31006KT P6SM -RA BKN040
     FM010700 14005KT P6SM -SHRA BKN030=



000
FTUS46 KMTR 311100
TAFMRY
TAF
KMRY 311130Z 3112/0112 10006KT P6SM BKN045
     FM311800 22006KT P6SM -RA OVC020
     FM010200 22003KT P6SM RA BKN018 OVC050=



000
FTUS46 KMTR 311100
TAFSFO
TAF
KSFO 311130Z 3112/0118 16004KT P6SM VCSH SCT025 BKN045
     FM311400 17009KT P6SM -RA SCT025 BKN040
     FM311800 21010KT P6SM -RA BKN035 OVC050
     FM312100 28012KT P6SM RA SCT035 BKN050
     FM010600 25008KT P6SM -SHRA SCT035 BKN050
     FM011500 20005KT P6SM VCSH SCT030 BKN050=



000
FTUS46 KMTR 311100
TAFOAK
TAF
KOAK 311130Z 3112/0118 14004KT P6SM BKN025 OVC035
     FM311400 16009KT P6SM -RA BKN025 OVC050
     FM311800 21010KT P6SM -RA FEW020 SCT035 BKN050
     FM312100 28010KT P6SM RA SCT035 BKN050
     FM010600 25007KT P6SM -SHRA SCT035 BKN050
     FM011500 20007KT P6SM VCSH SCT030 BKN050=



000
FTUS46 KMTR 311100
TAFSTS
TAF
KSTS 311130Z 3112/0112 12004KT P6SM VCSH BKN015 OVC025
     FM311800 20004KT P6SM -SHRA BKN008 OVC025
     FM312100 25005KT P6SM -SHRA BKN025 OVC050
     FM010300 00000KT P6SM BKN040 OVC090 PROB30 0103/0106 P6SM -SHRA
      OVC050=



000
FTUS46 KMTR 311100
TAFSNS
TAF
KSNS 311130Z 3112/0112 11003KT 4SM HZ OVC025
     FM311900 26004KT P6SM -RA OVC020
     FM010300 27007KT P6SM RA BKN015 OVC050=



000
FTUS46 KMTR 311100
TAFSJC
TAF
KSJC 311130Z 3112/0112 09004KT P6SM SCT030 BKN050
      TEMPO 3112/3116 P6SM -SHRA BKN025
     FM311600 14009KT P6SM -RA BKN040
     FM010700 14005KT P6SM -SHRA BKN030=



000
FTUS46 KMTR 310900 AAA
TAFSFO
TAF AMD
KSFO 310902Z 3109/0112 19006KT P6SM BKN026 OVC035
     FM311200 16008KT P6SM VCSH FEW010 BKN030 OVC050
     FM311400 17009KT P6SM -RA SCT025 BKN040
     FM311800 20011KT P6SM -RA BKN035 OVC050
     FM312100 28012KT P6SM RA SCT035 BKN050
     FM010600 25008KT P6SM -SHRA SCT035 BKN050=



000
FTUS46 KMTR 310500
TAFSNS
TAF
KSNS 310538Z 3106/0106 31004KT P6SM OVC012
     FM310700 13008KT P6SM BKN012 OVC030
     FM311900 26004KT P6SM -RA OVC020
     FM010300 27005KT P6SM RA BKN015 OVC050=



000
FTUS46 KMTR 310500
TAFSTS
TAF
KSTS 310538Z 3106/0106 00000KT 3SM -SHRA BR BKN007 OVC018
     FM311200 14004KT 6SM -RA BKN006 OVC015
     FM311800 20007KT P6SM -SHRA BKN008 OVC025
     FM312100 25005KT P6SM -SHRA BKN025 OVC050
     FM010300 00000KT P6SM BKN040 OVC090 PROB30 0103/0106 P6SM -SHRA
      OVC050=



000
FTUS46 KMTR 310500
TAFSFO
TAF
KSFO 310538Z 3106/0112 21008KT P6SM FEW010 BKN018 BKN150
     FM311200 16008KT P6SM FEW010 BKN020 OVC050
     FM311400 17009KT P6SM -RA SCT025 BKN040
     FM311800 20011KT P6SM -RA BKN035 OVC050
     FM312100 28012KT P6SM RA SCT035 BKN050
     FM010600 25008KT P6SM -SHRA SCT035 BKN050=



000
FTUS46 KMTR 310500
TAFMRY
TAF
KMRY 310538Z 3106/0106 00000KT P6SM OVC011
     FM311200 11003KT P6SM OVC012
     FM311800 22006KT P6SM -RA OVC020
     FM010200 24003KT P6SM RA BKN018 OVC050=



000
FTUS46 KMTR 310500
TAFSJC
TAF
KSJC 310538Z 3106/0106 VRB04KT P6SM SCT100 BKN180
     FM310800 15009KT P6SM BKN050 BKN150
      TEMPO 3112/3116 P6SM -SHRA BKN025
     FM311600 14009KT P6SM -RA BKN040
     FM312200 29007KT P6SM RA BKN025 OVC050=



000
FTUS46 KMTR 310500
TAFOAK
TAF
KOAK 310538Z 3106/0112 26009KT P6SM FEW010 BKN180
     FM310900 23007KT P6SM FEW010 OVC050
     FM311400 16009KT P6SM -RA BKN025 OVC050
     FM311800 21010KT P6SM -RA FEW020 SCT035 BKN050
     FM312100 28010KT P6SM RA BKN035 BKN050
     FM010600 25007KT P6SM -SHRA SCT035 BKN050=



000
FTUS46 KMTR 310300 AAB
TAFSFO
TAF AMD
KSFO 310306Z 3103/0106 24011KT P6SM FEW010 BKN150
     FM310600 21009KT P6SM FEW012 SCT035
     FM311200 16008KT P6SM BKN035 OVC050
     FM311400 17009KT P6SM -RA SCT025 BKN040
     FM311800 20011KT P6SM -RA BKN035 OVC050
     FM312100 28012KT P6SM -SHRA SCT035 BKN050=



000
FTUS46 KMTR 310000 AAA
TAFSNS
TAF AMD
KSNS 310005Z 3100/3124 30008KT P6SM OVC012
     FM310300 30004KT P6SM BKN012 OVC030
     FM310700 13008KT P6SM BKN012 OVC030 PROB30 3114/3118 -RA BKN020
     FM311900 22004KT P6SM -RA OVC020=



000
FTUS46 KMTR 310000 AAA
TAFSFO
TAF AMD
KSFO 310004Z 3100/0106 21007KT P6SM FEW009 BKN140 OVC180
     FM310600 21009KT P6SM FEW012 SCT035
     FM311200 16008KT P6SM BKN035 OVC050
     FM311400 17009KT P6SM -RA SCT025 BKN040
     FM311800 20011KT P6SM -RA BKN035 OVC050
     FM312100 28012KT P6SM -SHRA SCT035 BKN050=



000
FTUS46 KMTR 302300
TAFSFO
TAF
KSFO 302326Z 3100/0106 27014KT P6SM FEW009 BKN140 OVC180
     FM310300 25007KT P6SM FEW015 BKN100
     FM310600 21009KT P6SM FEW012 SCT035
     FM311200 16008KT P6SM BKN035 OVC050
     FM311400 17009KT P6SM -RA SCT025 BKN040
     FM311800 20011KT P6SM -RA BKN035 OVC050
     FM312100 28012KT P6SM -SHRA SCT035 BKN050=



000
FTUS46 KMTR 302300
TAFOAK
TAF
KOAK 302326Z 3100/0106 29013KT P6SM FEW010 BKN140 OVC180
     FM310400 25008KT P6SM BKN040 OVC100
     FM310600 20009KT P6SM BKN025 OVC050
     FM311400 16009KT P6SM -RA BKN035 OVC050
     FM311800 21010KT P6SM -RA FEW020 SCT035 BKN050
     FM312100 28010KT P6SM -SHRA SCT035 BKN050=



000
FTUS46 KMTR 302300
TAFMRY
TAF
KMRY 302326Z 3100/3124 20011KT P6SM SCT007
     FM310100 20005KT P6SM SCT007 BKN020
     FM310500 14004KT P6SM BKN020 PROB30 3114/3118 -RA BKN020
     FM311800 22004KT P6SM -RA OVC020=



000
FTUS46 KMTR 302300
TAFSNS
TAF
KSNS 302326Z 3100/3124 30013G21KT P6SM BKN014
     FM310300 31004KT P6SM BKN014 OVC030
     FM310700 13008KT P6SM BKN014 OVC030 PROB30 3114/3118 -RA BKN020
     FM311900 22004KT P6SM -RA OVC020=



000
FTUS46 KMTR 302300
TAFSTS
TAF
KSTS 302326Z 3100/3124 20008KT P6SM BKN150
     FM310400 16003KT P6SM OVC050
     FM311200 14004KT 6SM -RA BKN020
     FM311800 20007KT P6SM -SHRA BKN035
     FM312100 23005KT P6SM -RA OVC050=



000
FTUS46 KMTR 302300
TAFSJC
TAF
KSJC 302326Z 3100/3124 17011G14KT P6SM FEW080 SCT100 BKN160
     FM310300 17007KT P6SM FEW060 BKN100
     FM310700 15009KT P6SM BKN050
     FM311600 14009KT P6SM -RA BKN040
     FM312200 28007KT P6SM -RA BKN050=



000
FTUS46 KMTR 302100 AAA
TAFSJC
TAF AMD
KSJC 302120Z 3021/3118 18010KT P6SM FEW060 SCT100 BKN140
     FM310300 22007KT P6SM BKN100
     FM310700 15009KT P6SM BKN050
     FM311600 14009KT P6SM -RA BKN040=



000
FTUS46 KMTR 302100 AAA
TAFSFO
TAF AMD
KSFO 302103Z 3021/3124 30014KT P6SM FEW009 BKN180
     FM310300 25007KT P6SM FEW015 BKN100
     FM310600 21009KT P6SM FEW012 SCT035
     FM311200 16008KT P6SM BKN035 OVC050
     FM311400 17009KT P6SM -RA SCT025 BKN040
     FM311800 20011KT P6SM -RA BKN035 OVC050
     FM312100 28012KT P6SM -SHRA SCT035 BKN050=



000
FTUS46 KMTR 301700
TAFMRY
TAF
KMRY 301738Z 3018/3118 28005KT P6SM BKN150
     FM310100 20005KT P6SM BKN020
     FM310500 14004KT P6SM BKN020 PROB30 3114/3118 -RA BKN020=



000
FTUS46 KMTR 301700
TAFSTS
TAF
KSTS 301738Z 3018/3118 16004KT P6SM BKN250
     FM302100 22005KT P6SM OVC200
     FM310400 20006KT P6SM OVC050
     FM311200 14004KT 6SM -RA BKN020
     FM311730 25007KT P6SM -SHRA BKN035=



000
FTUS46 KMTR 301700
TAFSTS
TAF
KSTS 301738Z 3018/3118 16004KT P6SM BKN250
     FM302100 22005KT P6SM OVC200
     FM310400 20006KT P6SM OVC050
     FM311200 14004KT 6SM -RA BKN020
     FM311730 25007KT P6SM -SHRA BKN035=



000
FTUS46 KMTR 301700
TAFOAK
TAF
KOAK 301738Z 3018/3124 22005KT P6SM SCT180 BKN200
     FM302100 28009KT P6SM BKN150
     FM310400 25008KT P6SM BKN040 OVC100
     FM310600 20009KT P6SM BKN025 OVC050
     FM311400 16009KT P6SM -RA BKN035 OVC050
     FM311800 21010KT P6SM -RA FEW020 SCT035 BKN050
     FM312100 28010KT P6SM -SHRA SCT035 BKN050=



000
FTUS46 KMTR 301700
TAFSJC
TAF
KSJC 301738Z 3018/3118 14003KT P6SM FEW060 SCT090 BKN130
     FM302100 29006KT P6SM SCT100 BKN150
     FM310300 22005KT P6SM BKN100
     FM310700 15009KT P6SM BKN050
     FM311600 14009KT P6SM -RA BKN040=



000
FTUS46 KMTR 301700
TAFSFO
TAF
KSFO 301738Z 3018/3124 14005KT P6SM BKN180
     FM302100 25008KT P6SM FEW020 BKN150
     FM310300 23007KT P6SM FEW035 BKN100
     FM310600 21009KT P6SM FEW025 SCT040
     FM311200 16008KT P6SM BKN035 OVC050
     FM311400 17009KT P6SM -RA SCT025 BKN040
     FM311800 20011KT P6SM -RA BKN035 OVC050
     FM312100 28012KT P6SM -SHRA SCT035 BKN050=



000
FTUS46 KMTR 301700
TAFSJC
TAF
KSJC 301738Z 3018/3118 14003KT P6SM FEW060 SCT090 BKN130
     FM302100 29006KT P6SM SCT100 BKN150
     FM310300 22005KT P6SM BKN100
     FM310700 15009KT P6SM BKN050
     FM311600 14009KT P6SM -RA BKN040=



000
FTUS46 KMTR 301700
TAFSNS
TAF
KSNS 301738Z 3018/3118 12005KT P6SM BKN150
     FM302100 28009KT P6SM BKN150
     FM310400 31004KT P6SM OVC030
     FM310700 13008KT P6SM OVC030 PROB30 3114/3118 -RA BKN020=



000
FTUS46 KMTR 301700
TAFMRY
TAF
KMRY 301738Z 3018/3118 28005KT P6SM BKN150
     FM310100 20005KT P6SM BKN020
     FM310500 14004KT P6SM BKN020 PROB30 3114/3118 -RA BKN020=



000
FTUS46 KMTR 301700
TAFSNS
TAF
KSNS 301738Z 3018/3118 12005KT P6SM BKN150
     FM302100 28009KT P6SM BKN150
     FM310400 31004KT P6SM OVC030
     FM310700 13008KT P6SM OVC030 PROB30 3114/3118 -RA BKN020=



000
FTUS46 KMTR 301700
TAFSFO
TAF
KSFO 301738Z 3018/3124 14005KT P6SM BKN180
     FM302100 25008KT P6SM FEW020 BKN150
     FM310300 23007KT P6SM FEW035 BKN100
     FM310600 21009KT P6SM FEW025 SCT040
     FM311200 16008KT P6SM BKN035 OVC050
     FM311400 17009KT P6SM -RA SCT025 BKN040
     FM311800 20011KT P6SM -RA BKN035 OVC050
     FM312100 28012KT P6SM -SHRA SCT035 BKN050=



000
FTUS46 KMTR 301700
TAFOAK
TAF
KOAK 301738Z 3018/3124 22005KT P6SM SCT180 BKN200
     FM302100 28009KT P6SM BKN150
     FM310400 25008KT P6SM BKN040 OVC100
     FM310600 20009KT P6SM BKN025 OVC050
     FM311400 16009KT P6SM -RA BKN035 OVC050
     FM311800 21010KT P6SM -RA FEW020 SCT035 BKN050
     FM312100 28010KT P6SM -SHRA SCT035 BKN050=



000
FTUS46 KMTR 301500 AAA
TAFSFO
TAF AMD
KSFO 301522Z 3015/3118 31005KT P6SM BKN180
     FM302100 25008KT P6SM FEW020 BKN200
     FM310300 23006KT P6SM FEW040 BKN100
     FM311200 16006KT P6SM BKN025 OVC040
     FM311600 20011KT P6SM -RA BKN025 OVC040=



000
FTUS46 KMTR 301100
TAFSNS
TAF
KSNS 301122Z 3012/3112 09014KT P6SM SCT250
     FM301600 11009KT P6SM SCT250
     FM302100 28009KT P6SM SCT250
     FM310100 31009KT P6SM OVC100
     FM310400 31004KT P6SM OVC050
     FM310700 13008KT P6SM OVC050=



000
FTUS46 KMTR 301100
TAFOAK
TAF
KOAK 301122Z 3012/3118 00000KT P6SM SCT200
     FM301700 24005KT P6SM SCT250
     FM302100 28009KT P6SM BKN250
     FM310300 25008KT P6SM OVC050
     FM310600 20009KT P6SM BKN015 OVC050
     FM311730 25011KT P6SM -RA BKN025 OVC040=



000
FTUS46 KMTR 301100
TAFMRY
TAF
KMRY 301122Z 3012/3112 00000KT P6SM SCT250
     FM301800 VRB05KT P6SM SCT250
     FM302000 26005KT P6SM SCT250
     FM310100 20003KT P6SM OVC090
     FM310500 14004KT P6SM OVC050=



000
FTUS46 KMTR 301100
TAFSJC
TAF
KSJC 301122Z 3012/3112 00000KT P6SM SCT200
     FM302100 29006KT P6SM OVC200
     FM310300 22005KT P6SM OVC050
     FM310600 15008KT P6SM OVC050=



000
FTUS46 KMTR 301100
TAFSTS
TAF
KSTS 301122Z 3012/3112 34003KT P6SM SCT250
     FM302100 20005KT P6SM OVC250
     FM310300 00000KT P6SM OVC050=



000
FTUS46 KMTR 301100
TAFSFO
TAF
KSFO 301122Z 3012/3118 00000KT P6SM FEW010 SCT200
     FM301800 VRB03KT P6SM FEW010 BKN200
     FM302100 25008KT P6SM FEW010 BKN200
     FM310300 23006KT P6SM OVC050
     FM310900 20006KT P6SM BKN015 OVC040
     FM311730 25011KT P6SM -RA BKN025 OVC040=



000
FTUS46 KMTR 300900 AAA
TAFSFO
TAF AMD
KSFO 300901Z 3009/3112 00000KT P6SM FEW010 SCT180
     FM301800 VRB03KT P6SM FEW010 BKN200
     FM302100 25008KT P6SM FEW010 BKN200
     FM310300 23006KT P6SM OVC050
     FM310900 21006KT P6SM BKN015 OVC040=



000
FTUS46 KMTR 300500
TAFMRY
TAF
KMRY 300537Z 3006/3106 11003KT P6SM SCT250
     FM301800 VRB05KT P6SM SCT250
     FM302000 26005KT P6SM SCT250
     FM310100 20003KT P6SM OVC090
     FM310500 12004KT P6SM OVC050=



000
FTUS46 KMTR 300500
TAFSJC
TAF
KSJC 300537Z 3006/3106 00000KT P6SM SCT200
     FM302100 29006KT P6SM OVC200
     FM310400 22005KT P6SM OVC050=



000
FTUS46 KMTR 300500
TAFSTS
TAF
KSTS 300537Z 3006/3106 00000KT P6SM SKC
     FM300900 00000KT P6SM BKN250
     FM302100 20005KT P6SM OVC250
     FM310300 00000KT P6SM OVC050=



000
FTUS46 KMTR 300500
TAFSFO
TAF
KSFO 300537Z 3006/3112 29003KT P6SM SCT180
     FM300900 00000KT P6SM FEW010 SCT180
     FM301800 VRB03KT P6SM FEW010 BKN200
     FM302100 25008KT P6SM FEW010 BKN200
     FM310300 23006KT P6SM OVC050
     FM310900 21006KT P6SM BKN015 OVC040=



000
FTUS46 KMTR 300500
TAFOAK
TAF
KOAK 300537Z 3006/3112 00000KT P6SM SCT200
     FM301700 24005KT P6SM SCT250
     FM302100 28009KT P6SM BKN250
     FM310300 25008KT P6SM OVC050
     FM310600 24009KT P6SM BKN015 OVC050=



000
FTUS46 KMTR 300500
TAFSNS
TAF
KSNS 300537Z 3006/3106 00000KT P6SM SCT250
     FM300900 11003KT P6SM SCT250
     FM301600 11009KT P6SM SCT250
     FM302100 28009KT P6SM SCT250
     FM310100 31009KT P6SM OVC100
     FM310400 31003KT P6SM OVC050=



000
FTUS46 KMTR 300300 AAA
TAFSFO
TAF AMD
KSFO 300306Z 3003/3106 28009KT P6SM FEW180
     FM300900 00000KT P6SM FEW010 BKN180
     FM301800 VRB03KT P6SM FEW010 BKN200
     FM302100 25008KT P6SM FEW010 BKN200
     FM310300 23006KT P6SM OVC200=



000
FTUS46 KMTR 292300
TAFSJC
TAF
KSJC 292333Z 3000/3024 31006KT P6SM FEW160 SCT200
     FM300500 00000KT P6SM SCT200
     FM302100 29006KT P6SM OVC200=



000
FTUS46 KMTR 292300
TAFOAK
TAF
KOAK 292333Z 3000/3106 30010KT P6SM SCT200
     FM300500 00000KT P6SM FEW010
     FM301700 24005KT P6SM SCT250
     FM302100 28009KT P6SM BKN250
     FM310300 25008KT P6SM OVC250=



000
FTUS46 KMTR 292300
TAFMRY
TAF
KMRY 292333Z 3000/3024 VRB03KT P6SM SKC
     FM300400 10003KT P6SM FEW250
     FM301800 VRB05KT P6SM SCT250
     FM302000 26005KT P6SM SCT250=



000
FTUS46 KMTR 292300
TAFSNS
TAF
KSNS 292333Z 3000/3024 29006KT P6SM SKC
     FM300300 VRB03KT P6SM SKC
     FM300900 11003KT P6SM FEW250
     FM301600 11009KT P6SM SCT250
     FM302100 28009KT P6SM SCT250=



000
FTUS46 KMTR 292300
TAFSTS
TAF
KSTS 292333Z 3000/3024 16004KT P6SM FEW250
     FM300300 00000KT P6SM FEW250
     FM302100 20005KT P6SM OVC250=



000
FTUS46 KMTR 292300
TAFSFO
TAF
KSFO 292333Z 3000/3106 29008KT P6SM SCT180
     FM300900 00000KT P6SM FEW010 BKN180
     FM301800 VRB03KT P6SM FEW010 BKN200
     FM302100 25008KT P6SM FEW010 BKN200
     FM310300 23006KT P6SM OVC200=



000
FTUS46 KMTR 292100 AAA
TAFSFO
TAF AMD
KSFO 292100Z 2921/3024 04005KT P6SM FEW010 SCT200
     FM292200 29010KT P6SM SCT200
     FM292300 28015KT P6SM SCT200
     FM300600 28008KT P6SM SCT200
     FM300900 25002KT P6SM FEW010
     FM302100 25008KT P6SM FEW010=



000
FTUS46 KMTR 291700
TAFSFO
TAF
KSFO 291733Z 2918/3024 04005KT P6SM FEW010 SCT200
     FM292200 29010KT P6SM SCT200
     FM292300 28015KT P6SM SCT200
     FM300600 28008KT P6SM SCT200
     FM300900 25002KT P6SM FEW010
     FM302100 25008KT P6SM FEW010=



000
FTUS46 KMTR 291700
TAFMRY
TAF
KMRY 291733Z 2918/3018 VRB03KT P6SM SKC
     FM292000 31006KT P6SM SKC
     FM300200 VRB03KT P6SM SKC=



000
FTUS46 KMTR 291700
TAFSNS
TAF
KSNS 291733Z 2918/3018 10006KT P6SM SKC
     FM292100 29009KT P6SM SKC
     FM300300 VRB03KT P6SM SKC
     FM301200 11005KT P6SM SKC
     FM301600 11008KT P6SM SKC=



000
FTUS46 KMTR 291700
TAFSTS
TAF
KSTS 291733Z 2918/3018 00000KT P6SM SCT150
     FM292200 18005KT P6SM SCT150
     FM300200 00000KT P6SM BKN150=



000
FTUS46 KMTR 291700
TAFSJC
TAF
KSJC 291733Z 2918/3018 13003KT P6SM FEW100
     FM292200 30008KT P6SM FEW250
     FM300500 VRB03KT P6SM SKC=



000
FTUS46 KMTR 291700
TAFOAK
TAF
KOAK 291733Z 2918/3024 19004KT P6SM FEW200
     FM292100 29009KT P6SM SCT250
     FM300500 VRB03KT P6SM FEW010
     FM301800 24005KT P6SM SCT250=



000
FTUS46 KMTR 291400 AAB
TAFSFO
TAF AMD
KSFO 291453Z 2915/3018 04005KT P6SM SKC
     FM292200 29010KT P6SM SCT250
     FM300900 25002KT P6SM SCT025
     FM301200 28002KT P6SM OVC015=



000
FTUS46 KMTR 291300 AAA
TAFSFO
TAF AMD
KSFO 291344Z 2914/3018 00000KT P6SM SKC
     FM292200 29010KT P6SM SCT250
     FM300900 25002KT P6SM SCT025
     FM301200 28002KT P6SM OVC015=



000
FTUS46 KMTR 291300 AAA
TAFOAK
TAF AMD
KOAK 291343Z 2914/3018 05003KT P6SM SKC
     FM292100 29009KT P6SM SCT250
     FM300800 VRB03KT P6SM FEW010
     FM301200 08002KT P6SM BKN015=



000
FTUS46 KMTR 291300 AAA
TAFSTS
TAF AMD
KSTS 291343Z 2914/3012 00000KT P6SM SKC
     FM291500 00000KT P6SM SCT150
     FM292200 18005KT P6SM FEW150
     FM301100 00000KT P6SM BKN150=



000
FTUS46 KMTR 291100 RRA
TAFSFO
TAF
KSFO 291143Z 2912/3018 00000KT P6SM SKC
      TEMPO 2912/2916 BKN010
     FM292200 29010KT P6SM FEW010 SCT250
     FM300900 25002KT P6SM SCT025
     FM301200 28002KT P6SM OVC015=



000
FTUS46 KMTR 291100 RRA
TAFMRY
TAF
KMRY 291143Z 2912/3012 09005KT P6SM SKC
     FM292000 31006KT P6SM FEW250
     FM300200 VRB03KT P6SM SKC
     FM300800 09002KT P6SM BKN010=



000
FTUS46 KMTR 291100 RRA
TAFSJC
TAF
KSJC 291143Z 2912/3012 13003KT P6SM SKC
     FM292200 30008KT P6SM FEW250
     FM300300 VRB03KT P6SM SKC
     FM300900 00000KT P6SM SCT025 BKN250=



000
FTUS46 KMTR 291100 RRA
TAFOAK
TAF
KOAK 291143Z 2912/3018 00000KT P6SM SKC
      TEMPO 2912/2916 1SM BR
     FM292100 29009KT P6SM SCT250
     FM300800 VRB03KT P6SM FEW010
     FM301200 08002KT P6SM BKN015=



000
FTUS46 KMTR 291100 RRA
TAFSNS
TAF
KSNS 291143Z 2912/3012 00000KT P6SM SKC
     FM291600 11005KT P6SM SKC
     FM292100 29009KT P6SM FEW250
     FM300300 VRB03KT P6SM SKC
     FM300900 11002KT P6SM BKN010=



000
FTUS46 KMTR 291100 RRA
TAFSTS
TAF
KSTS 291143Z 2912/3012 00000KT P6SM FEW150
      TEMPO 2912/2915 1/2SM FG
     FM291500 00000KT P6SM SCT150
     FM292200 18005KT P6SM FEW150
     FM301100 00000KT P6SM BKN150=



000
FTUS46 KMTR 291000 AAA
TAFSTS
TAF AMD
KSTS 291001Z 2910/3006 00000KT P6SM SKC
      TEMPO 2911/2915 1/2SM FG
     FM291600 VRB03KT P6SM SKC
     FM292200 18005KT P6SM SKC=



000
FTUS46 KMTR 290900 AAA
TAFSFO
TAF AMD
KSFO 290930Z 2910/3012 17003KT P6SM FEW010
      TEMPO 2912/2916 BKN010
     FM292200 29012KT P6SM FEW010 SCT250
     FM300500 29007KT P6SM FEW010=



    US Dept of Commerce
    National Oceanic and Atmospheric Administration
    National Weather Service
    1325 East West Highway
    Silver Spring, MD 20910
    Page Author: NWS Internet Services Team
Disclaimer
Information Quality
Credits
Glossary
Privacy Policy
Freedom of Information Act (FOIA)
About Us
Career Opportunities